createdAt,value
2023-05-22T00:02:19.014Z,10.63
2023-05-22T00:04:48.721Z,11.47
2023-05-22T00:07:17.016Z,11.00
2023-05-22T00:09:45.469Z,10.57
2023-05-22T00:12:13.803Z,11.07
2023-05-22T00:14:42.181Z,10.83
2023-05-22T00:17:10.523Z,12.13
2023-05-22T00:19:39.037Z,10.40
2023-05-22T00:22:09.049Z,11.70
2023-05-22T00:24:37.537Z,11.03
2023-05-22T00:27:06.240Z,11.70
2023-05-22T00:29:34.967Z,10.43
2023-05-22T00:32:03.347Z,10.30
2023-05-22T00:34:31.796Z,10.70
2023-05-22T00:37:00.165Z,11.27
2023-05-22T00:39:30.089Z,9.83
2023-05-22T00:41:58.497Z,10.87
2023-05-22T00:44:27.270Z,10.10
2023-05-22T00:46:57.005Z,11.07
2023-05-22T00:49:25.692Z,11.47
2023-05-22T00:51:53.951Z,11.80
2023-05-22T00:54:22.615Z,10.80
2023-05-22T00:56:52.586Z,11.00
2023-05-22T00:59:21.177Z,11.20
2023-05-22T01:01:49.986Z,10.77
2023-05-22T01:04:18.795Z,10.90
2023-05-22T01:06:47.924Z,11.03
2023-05-22T01:09:17.745Z,10.50
2023-05-22T01:11:53.234Z,11.50
2023-05-22T01:14:31.309Z,11.07
2023-05-22T01:17:09.128Z,11.13
2023-05-22T01:20:01.498Z,11.83
2023-05-22T01:23:04.509Z,11.40
2023-05-22T01:25:50.567Z,10.37
2023-05-22T01:28:35.432Z,10.77
2023-05-22T01:31:09.097Z,11.60
2023-05-22T01:33:43.095Z,11.30
2023-05-22T01:36:15.934Z,10.53
2023-05-22T01:38:45.154Z,10.90
2023-05-22T01:41:13.817Z,10.67
2023-05-22T01:43:43.455Z,11.07
2023-05-22T01:46:13.209Z,11.83
2023-05-22T01:48:41.387Z,11.73
2023-05-22T01:51:16.050Z,10.77
2023-05-22T01:53:53.216Z,11.90
2023-05-22T01:56:30.876Z,11.63
2023-05-22T01:59:08.100Z,11.70
2023-05-22T02:01:38.648Z,11.33
2023-05-22T02:04:13.668Z,13.33
2023-05-22T02:06:44.420Z,12.47
2023-05-22T02:09:14.391Z,12.00
2023-05-22T02:11:43.572Z,11.47
2023-05-22T02:14:13.369Z,12.53
2023-05-22T02:16:46.931Z,12.10
2023-05-22T02:19:15.485Z,12.43
2023-05-22T02:21:44.446Z,12.80
2023-05-22T02:24:12.692Z,12.30
2023-05-22T02:26:40.913Z,12.00
2023-05-22T02:29:09.231Z,13.07
2023-05-22T02:31:37.478Z,12.63
2023-05-22T02:34:07.132Z,11.70
2023-05-22T02:36:37.326Z,10.80
2023-05-22T02:39:06.375Z,11.00
2023-05-22T02:41:34.768Z,11.50
2023-05-22T02:44:03.332Z,11.47
2023-05-22T02:46:31.608Z,11.53
2023-05-22T02:48:59.890Z,11.50
2023-05-22T02:51:30.214Z,10.20
2023-05-22T02:53:58.411Z,12.03
2023-05-22T02:56:29.209Z,12.00
2023-05-22T02:58:57.510Z,11.97
2023-05-22T03:01:26.627Z,12.10
2023-05-22T03:03:56.134Z,11.40
2023-05-22T03:06:25.712Z,10.70
2023-05-22T03:08:56.283Z,11.87
2023-05-22T03:11:25.243Z,12.03
2023-05-22T03:13:53.713Z,11.53
2023-05-22T03:16:21.997Z,10.40
2023-05-22T03:18:53.509Z,11.50
2023-05-22T03:21:21.899Z,11.60
2023-05-22T03:23:50.198Z,11.10
2023-05-22T03:26:19.850Z,10.73
2023-05-22T03:28:48.255Z,11.13
2023-05-22T03:31:17.946Z,10.77
2023-05-22T03:33:59.572Z,11.50
2023-05-22T03:36:27.868Z,11.87
2023-05-22T03:38:56.189Z,12.20
2023-05-22T03:41:25.996Z,12.10
2023-05-22T03:43:54.502Z,11.37
2023-05-22T03:46:24.590Z,11.90
2023-05-22T03:48:53.332Z,11.80
2023-05-22T03:51:21.672Z,11.63
2023-05-22T03:53:50.048Z,11.30
2023-05-22T03:56:18.454Z,10.80
2023-05-22T03:58:51.807Z,10.87
2023-05-22T04:01:20.260Z,11.13
2023-05-22T04:03:48.539Z,12.00
2023-05-22T04:06:17.920Z,10.73
2023-05-22T04:08:47.875Z,11.77
2023-05-22T04:11:16.825Z,11.27
2023-05-22T04:13:45.588Z,12.70
2023-05-22T04:16:17.783Z,11.40
2023-05-22T04:18:46.462Z,11.47
2023-05-22T04:21:14.873Z,13.40
2023-05-22T04:23:44.590Z,11.93
2023-05-22T04:26:13.453Z,11.57
2023-05-22T04:28:46.255Z,12.43
2023-05-22T04:31:16.120Z,13.70
2023-05-22T04:33:48.402Z,12.20
2023-05-22T04:36:17.609Z,11.40
2023-05-22T04:38:47.742Z,10.33
2023-05-22T04:41:18.373Z,12.47
2023-05-22T04:43:48.437Z,12.73
2023-05-22T04:46:18.794Z,12.40
2023-05-22T04:48:47.281Z,11.47
2023-05-22T04:51:17.047Z,12.30
2023-05-22T04:53:46.431Z,12.83
2023-05-22T04:56:21.303Z,12.33
2023-05-22T04:58:56.536Z,13.67
2023-05-22T05:01:28.007Z,12.90
2023-05-22T05:03:57.004Z,12.53
2023-05-22T05:06:26.329Z,13.23
2023-05-22T05:08:55.069Z,13.33
2023-05-22T05:11:23.316Z,13.87
2023-05-22T05:13:51.611Z,13.67
2023-05-22T05:16:20.162Z,15.43
2023-05-22T05:18:49.798Z,14.10
2023-05-22T05:21:18.961Z,13.03
2023-05-22T05:23:47.682Z,13.20
2023-05-22T05:26:15.962Z,12.50
2023-05-22T05:28:44.242Z,13.00
2023-05-22T05:31:12.883Z,14.43
2023-05-22T05:33:44.537Z,13.13
2023-05-22T05:36:25.413Z,13.10
2023-05-22T05:38:54.239Z,12.80
2023-05-22T05:41:23.095Z,14.03
2023-05-22T05:44:00.286Z,13.73
2023-05-22T05:46:31.849Z,14.80
2023-05-22T05:49:00.922Z,13.23
2023-05-22T05:51:31.219Z,12.00
2023-05-22T05:53:59.941Z,13.00
2023-05-22T05:56:28.189Z,12.13
2023-05-22T05:58:56.766Z,10.60
2023-05-22T06:01:54.336Z,10.63
2023-05-22T06:04:28.330Z,10.63
2023-05-22T06:06:58.552Z,10.17
2023-05-22T06:09:32.509Z,10.50
2023-05-22T06:12:16.998Z,10.87
2023-05-22T06:14:46.673Z,10.07
2023-05-22T06:17:16.463Z,10.17
2023-05-22T06:19:46.125Z,10.20
2023-05-22T06:22:16.842Z,11.00
2023-05-22T06:24:47.910Z,10.60
2023-05-22T06:27:20.482Z,10.70
2023-05-22T06:29:48.818Z,10.57
2023-05-22T06:32:17.374Z,10.43
2023-05-22T06:34:49.838Z,10.67
2023-05-22T06:37:23.446Z,11.07
2023-05-22T06:39:52.459Z,11.63
2023-05-22T06:42:29.817Z,11.17
2023-05-22T06:45:20.158Z,11.20
2023-05-22T06:48:08.272Z,10.90
2023-05-22T06:50:43.038Z,11.27
2023-05-22T06:53:13.240Z,11.10
2023-05-22T06:55:42.086Z,11.57
2023-05-22T06:58:16.879Z,10.70
2023-05-22T07:00:46.053Z,10.73
2023-05-22T07:03:22.741Z,11.50
2023-05-22T07:06:12.515Z,11.30
2023-05-22T07:08:43.861Z,10.87
2023-05-22T07:11:12.911Z,11.57
2023-05-22T07:13:41.765Z,10.57
2023-05-22T07:16:10.602Z,11.27
2023-05-22T07:18:40.494Z,11.53
2023-05-22T07:21:09.308Z,11.30
2023-05-22T07:23:38.228Z,10.30
2023-05-22T07:26:10.084Z,11.20
2023-05-22T07:28:46.941Z,10.33
2023-05-22T07:31:16.800Z,10.67
2023-05-22T07:33:47.356Z,11.13
2023-05-22T07:36:19.409Z,10.90
2023-05-22T07:38:47.995Z,11.17
2023-05-22T07:41:19.545Z,11.30
2023-05-22T07:43:48.490Z,10.00
2023-05-22T07:46:21.488Z,10.00
2023-05-22T07:49:00.051Z,12.40
2023-05-22T07:51:28.526Z,10.50
2023-05-22T07:56:27.421Z,11.70
2023-05-22T07:58:56.670Z,11.13
2023-05-22T08:01:25.303Z,11.53
2023-05-22T08:03:53.722Z,11.30
2023-05-22T08:06:23.719Z,10.77
2023-05-22T08:08:53.030Z,10.10
2023-05-22T08:11:21.496Z,11.87
2023-05-22T08:13:51.126Z,10.37
2023-05-22T08:16:19.832Z,10.27
2023-05-22T08:18:48.047Z,11.57
2023-05-22T08:21:16.305Z,11.20
2023-05-22T08:23:44.597Z,10.40
2023-05-22T08:26:12.805Z,10.00
2023-05-22T08:28:44.301Z,9.83
2023-05-22T08:31:14.638Z,9.70
2023-05-22T08:33:43.099Z,9.70
2023-05-22T08:36:11.826Z,10.70
2023-05-22T08:38:39.981Z,9.10
2023-05-22T08:41:09.061Z,9.33
2023-05-22T08:43:37.541Z,10.10
2023-05-22T08:46:08.696Z,9.03
2023-05-22T08:48:39.364Z,9.50
2023-05-22T08:51:09.173Z,10.33
2023-05-22T08:53:38.542Z,10.13
2023-05-22T08:56:08.560Z,10.23
2023-05-22T08:58:38.331Z,8.40
2023-05-22T09:01:07.409Z,9.33
2023-05-22T09:03:38.902Z,9.20
2023-05-22T09:06:09.499Z,11.27
2023-05-22T09:08:38.570Z,10.10
2023-05-22T09:11:06.759Z,9.40
2023-05-22T09:13:34.910Z,8.90
2023-05-22T09:16:11.391Z,8.80
2023-05-22T09:18:42.546Z,9.20
2023-05-22T09:21:25.861Z,9.87
2023-05-22T09:24:01.997Z,10.13
2023-05-22T09:26:30.810Z,10.10
2023-05-22T09:29:01.135Z,8.90
2023-05-22T09:31:30.532Z,9.37
2023-05-22T09:34:00.331Z,9.50
2023-05-22T09:36:33.587Z,10.17
2023-05-22T09:39:02.525Z,9.70
2023-05-22T09:41:31.535Z,10.27
2023-05-22T09:44:01.785Z,10.10
2023-05-22T09:46:30.798Z,10.20
2023-05-22T09:49:03.272Z,9.73
2023-05-22T09:51:32.090Z,9.93
2023-05-22T09:54:06.586Z,10.27
2023-05-22T09:56:40.156Z,9.43
2023-05-22T09:59:10.961Z,10.80
2023-05-22T10:01:40.209Z,10.33
2023-05-22T10:04:14.498Z,10.53
2023-05-22T10:06:44.344Z,10.37
2023-05-22T10:09:19.536Z,9.53
2023-05-22T10:11:48.783Z,11.00
2023-05-22T10:14:17.740Z,11.00
2023-05-22T10:16:46.081Z,10.13
2023-05-22T10:19:16.263Z,10.80
2023-05-22T10:21:44.710Z,10.13
2023-05-22T10:24:14.831Z,9.40
2023-05-22T10:26:45.057Z,9.70
2023-05-22T10:29:18.437Z,10.87
2023-05-22T10:31:56.876Z,10.00
2023-05-22T10:34:40.402Z,9.60
2023-05-22T10:37:23.131Z,10.00
2023-05-22T10:40:02.487Z,9.07
2023-05-22T10:42:31.774Z,10.10
2023-05-22T10:45:02.256Z,9.53
2023-05-22T10:47:34.413Z,10.00
2023-05-22T10:50:09.946Z,9.30
2023-05-22T10:52:39.792Z,8.53
2023-05-22T10:55:09.405Z,8.60
2023-05-22T10:57:39.932Z,9.07
2023-05-22T11:00:10.576Z,10.73
2023-05-22T11:02:41.601Z,9.23
2023-05-22T11:05:36.560Z,10.20
2023-05-22T11:08:40.756Z,9.80
2023-05-22T11:11:14.891Z,8.90
2023-05-22T11:13:43.996Z,8.90
2023-05-22T11:16:12.472Z,9.37
2023-05-22T11:18:41.118Z,9.57
2023-05-22T11:21:13.722Z,10.30
2023-05-22T11:23:42.674Z,11.60
2023-05-22T11:26:26.449Z,10.60
2023-05-22T11:28:56.790Z,9.17
2023-05-22T11:31:26.651Z,9.80
2023-05-22T11:33:55.561Z,9.70
2023-05-22T11:36:26.085Z,10.10
2023-05-22T11:39:01.475Z,9.77
2023-05-22T11:41:34.748Z,10.20
2023-05-22T11:44:03.653Z,10.07
2023-05-22T11:46:32.197Z,9.30
2023-05-22T11:49:00.836Z,8.30
2023-05-22T11:51:30.601Z,9.10
2023-05-22T11:53:58.912Z,9.93
2023-05-22T11:56:27.394Z,8.63
2023-05-22T11:58:55.649Z,9.60
2023-05-22T12:01:23.796Z,9.20
2023-05-22T12:03:53.362Z,8.67
2023-05-22T12:06:21.793Z,8.30
2023-05-22T12:08:51.839Z,8.93
2023-05-22T12:11:20.195Z,8.70
2023-05-22T12:13:52.151Z,9.53
2023-05-22T12:16:23.121Z,9.60
2023-05-22T12:18:54.571Z,9.50
2023-05-22T12:21:24.149Z,8.33
2023-05-22T12:23:54.135Z,10.30
2023-05-22T12:26:22.432Z,10.30
2023-05-22T12:28:54.544Z,9.47
2023-05-22T12:31:23.497Z,9.17
2023-05-22T12:33:55.939Z,9.90
2023-05-22T12:36:34.180Z,9.23
2023-05-22T12:39:07.982Z,9.40
2023-05-22T12:41:36.381Z,9.50
2023-05-22T12:44:04.650Z,9.40
2023-05-22T12:46:33.501Z,8.97
2023-05-22T12:49:02.791Z,8.40
2023-05-22T12:51:33.082Z,8.80
2023-05-22T12:54:03.211Z,9.00
2023-05-22T12:56:32.218Z,8.50
2023-05-22T12:59:00.511Z,7.53
2023-05-22T13:01:28.862Z,8.37
2023-05-22T13:03:57.148Z,9.10
2023-05-22T13:06:27.974Z,8.10
2023-05-22T13:08:58.728Z,9.17
2023-05-22T13:11:28.440Z,7.63
2023-05-22T13:13:56.888Z,9.63
2023-05-22T13:16:25.273Z,8.83
2023-05-22T13:18:53.588Z,7.67
2023-05-22T13:21:21.766Z,8.87
2023-05-22T13:23:49.962Z,8.80
2023-05-22T13:26:18.272Z,7.97
2023-05-22T13:28:47.787Z,9.07
2023-05-22T13:31:16.277Z,9.30
2023-05-22T13:33:44.578Z,8.77
2023-05-22T13:36:12.977Z,8.57
2023-05-22T13:38:41.365Z,8.20
2023-05-22T13:41:09.910Z,9.63
2023-05-22T13:43:38.126Z,9.53
2023-05-22T13:46:08.407Z,8.63
2023-05-22T13:48:37.026Z,7.80
2023-05-22T13:51:05.557Z,8.87
2023-05-22T13:53:33.769Z,8.63
2023-05-22T13:56:02.745Z,9.60
2023-05-22T13:58:31.241Z,9.47
2023-05-22T14:00:59.796Z,8.60
2023-05-22T14:03:29.425Z,8.97
2023-05-22T14:05:57.712Z,9.83
2023-05-22T14:08:26.561Z,8.90
2023-05-22T14:10:55.042Z,9.13
2023-05-22T14:13:23.249Z,8.23
2023-05-22T14:15:51.459Z,8.93
2023-05-22T14:18:19.863Z,9.57
2023-05-22T14:20:49.573Z,9.40
2023-05-22T14:23:17.905Z,8.07
2023-05-22T14:25:46.416Z,8.83
2023-05-22T14:28:15.008Z,8.60
2023-05-22T14:30:43.597Z,9.07
2023-05-22T14:33:12.517Z,9.80
2023-05-22T14:35:41.415Z,9.73
2023-05-22T14:38:11.464Z,10.23
2023-05-22T14:40:39.720Z,9.43
2023-05-22T14:43:08.252Z,9.13
2023-05-22T14:45:36.514Z,10.13
2023-05-22T14:48:05.032Z,9.43
2023-05-22T14:50:33.781Z,10.07
2023-05-22T14:53:02.021Z,8.70
2023-05-22T14:55:31.958Z,9.20
2023-05-22T14:58:00.291Z,9.50
2023-05-22T15:00:28.475Z,9.37
2023-05-22T15:02:56.782Z,9.20
2023-05-22T15:05:26.676Z,9.37
2023-05-22T15:07:58.660Z,8.97
2023-05-22T15:10:27.174Z,8.90
2023-05-22T15:12:57.092Z,9.80
2023-05-22T15:15:25.640Z,9.07
2023-05-22T15:17:53.917Z,9.90
2023-05-22T15:20:22.404Z,10.03
2023-05-22T15:22:50.559Z,10.30
2023-05-22T15:25:18.772Z,11.83
2023-05-22T15:27:47.198Z,10.13
2023-05-22T15:30:17.335Z,10.77
2023-05-22T15:32:46.010Z,9.03
2023-05-22T15:35:15.117Z,10.10
2023-05-22T15:37:43.612Z,9.23
2023-05-22T15:40:16.365Z,9.80
2023-05-22T15:42:44.791Z,9.67
2023-05-22T15:45:13.724Z,8.23
2023-05-22T15:47:43.966Z,8.43
2023-05-22T15:50:12.404Z,6.43
2023-05-22T15:52:41.061Z,6.70
2023-05-22T15:55:09.728Z,9.27
2023-05-22T15:57:38.322Z,8.13
2023-05-22T16:00:08.292Z,8.97
2023-05-22T16:02:36.949Z,9.10
2023-05-22T16:05:07.530Z,8.87
2023-05-22T16:07:36.082Z,9.50
2023-05-22T16:10:04.758Z,9.50
2023-05-22T16:12:33.097Z,9.40
2023-05-22T16:15:03.271Z,9.73
2023-05-22T16:17:33.213Z,9.00
2023-05-22T16:20:01.551Z,10.97
2023-05-22T16:22:44.162Z,10.60
2023-05-22T16:25:16.850Z,10.50
2023-05-22T16:27:45.198Z,10.40
2023-05-22T16:30:16.606Z,10.80
2023-05-22T16:32:46.586Z,9.43
2023-05-22T16:35:15.229Z,10.60
2023-05-22T16:37:45.109Z,11.47
2023-05-22T16:40:13.621Z,11.57
2023-05-22T16:42:41.893Z,10.20
2023-05-22T16:45:10.654Z,11.60
2023-05-22T16:47:38.906Z,10.60
2023-05-22T16:50:08.815Z,11.53
2023-05-22T16:52:37.674Z,11.60
2023-05-22T16:55:08.686Z,12.13
2023-05-22T16:57:36.876Z,11.57
2023-05-22T17:00:07.187Z,11.20
2023-05-22T17:02:35.706Z,12.87
2023-05-22T17:05:04.066Z,13.27
2023-05-22T17:07:32.702Z,12.30
2023-05-22T17:10:01.409Z,12.97
2023-05-22T17:12:31.136Z,12.70
2023-05-22T17:14:59.422Z,12.47
2023-05-22T17:17:27.740Z,11.40
2023-05-22T17:19:55.975Z,11.30
2023-05-22T17:22:24.587Z,11.70
2023-05-22T17:24:52.793Z,10.47
2023-05-22T17:27:34.885Z,9.37
2023-05-22T17:30:07.750Z,9.87
2023-05-22T17:32:37.475Z,9.93
2023-05-22T17:35:07.102Z,9.87
2023-05-22T17:37:35.775Z,9.50
2023-05-22T17:40:04.850Z,9.30
2023-05-22T17:42:33.061Z,10.17
2023-05-22T17:45:01.645Z,9.60
2023-05-22T17:47:31.436Z,10.40
2023-05-22T17:49:59.696Z,9.40
2023-05-22T17:52:27.890Z,9.77
2023-05-22T17:54:56.473Z,10.97
2023-05-22T17:57:24.749Z,10.10
2023-05-22T17:59:53.045Z,9.40
2023-05-22T18:02:21.549Z,8.93
2023-05-22T18:04:51.248Z,10.63
2023-05-22T18:07:20.064Z,9.33
2023-05-22T18:09:48.589Z,9.50
2023-05-22T18:12:31.090Z,8.53
2023-05-22T18:15:00.192Z,8.40
2023-05-22T18:17:28.632Z,9.73
2023-05-22T18:19:58.288Z,8.90
2023-05-22T18:22:26.729Z,9.20
2023-05-22T18:24:54.992Z,8.37
2023-05-22T18:27:23.436Z,9.53
2023-05-22T18:29:51.885Z,10.93
2023-05-22T18:32:20.170Z,9.30
2023-05-22T18:34:48.614Z,9.30
2023-05-22T18:37:18.964Z,10.80
2023-05-22T18:39:47.194Z,10.83
2023-05-22T18:42:15.847Z,10.47
2023-05-22T18:44:44.886Z,10.40
2023-05-22T18:47:14.105Z,10.00
2023-05-22T18:49:42.378Z,9.67
2023-05-22T18:52:10.777Z,10.43
2023-05-22T18:54:40.861Z,10.50
2023-05-22T18:57:09.283Z,9.50
2023-05-22T18:59:38.520Z,9.90
2023-05-22T19:02:06.869Z,10.97
2023-05-22T19:04:35.133Z,9.90
2023-05-22T19:07:03.300Z,9.70
2023-05-22T19:09:31.744Z,11.20
2023-05-22T19:12:01.302Z,11.70
2023-05-22T19:14:29.777Z,11.77
2023-05-22T19:16:59.532Z,10.03
2023-05-22T19:19:27.846Z,10.13
2023-05-22T19:21:56.185Z,10.50
2023-05-22T19:24:24.405Z,9.73
2023-05-22T19:26:52.830Z,11.10
2023-05-22T19:29:22.689Z,10.77
2023-05-22T19:31:50.979Z,11.40
2023-05-22T19:34:19.620Z,10.73
2023-05-22T19:36:48.260Z,11.17
2023-05-22T19:39:16.819Z,10.53
2023-05-22T19:41:45.125Z,10.33
2023-05-22T19:44:13.344Z,10.27
2023-05-22T19:46:42.983Z,11.50
2023-05-22T19:49:11.561Z,10.73
2023-05-22T19:51:40.393Z,11.20
2023-05-22T19:54:08.653Z,10.83
2023-05-22T19:56:37.412Z,10.07
2023-05-22T19:59:05.722Z,11.63
2023-05-22T20:01:33.940Z,9.63
2023-05-22T20:04:03.774Z,10.00
2023-05-22T20:06:33.622Z,10.43
2023-05-22T20:09:02.983Z,10.20
2023-05-22T20:11:31.202Z,11.53
2023-05-22T20:13:59.463Z,10.23
2023-05-22T20:16:29.502Z,10.87
2023-05-22T20:18:57.815Z,10.80
2023-05-22T20:21:27.510Z,10.47
2023-05-22T20:23:55.837Z,10.73
2023-05-22T20:26:24.423Z,10.77
2023-05-22T20:28:52.618Z,10.30
2023-05-22T20:31:20.886Z,10.03
2023-05-22T20:33:49.522Z,11.10
2023-05-22T20:36:18.965Z,11.00
2023-05-22T20:38:48.559Z,12.13
2023-05-22T20:41:16.946Z,12.63
2023-05-22T20:43:46.160Z,12.43
2023-05-22T20:46:14.393Z,11.77
2023-05-22T20:48:46.950Z,11.33
2023-05-22T20:51:15.937Z,11.97
2023-05-22T20:53:44.040Z,10.63
2023-05-22T20:56:13.647Z,10.40
2023-05-22T20:58:42.368Z,10.20
2023-05-22T21:01:10.634Z,10.17
2023-05-22T21:03:39.211Z,10.90
2023-05-22T21:06:07.746Z,11.70
2023-05-22T21:08:36.190Z,11.40
2023-05-22T21:11:04.646Z,10.77
2023-05-22T21:13:34.373Z,11.13
2023-05-22T21:16:02.833Z,10.80
2023-05-22T21:18:31.147Z,9.80
2023-05-22T21:20:59.310Z,10.40
2023-05-22T21:23:27.906Z,11.20
2023-05-22T21:25:56.096Z,11.20
2023-05-22T21:28:25.670Z,11.37
2023-05-22T21:30:55.236Z,12.07
2023-05-22T21:33:23.518Z,11.77
2023-05-22T21:35:51.687Z,12.47
2023-05-22T21:38:20.061Z,11.30
2023-05-22T21:40:48.302Z,10.53
2023-05-22T21:43:16.510Z,9.90
2023-05-22T21:45:44.927Z,11.67
2023-05-22T21:48:14.598Z,11.43
2023-05-22T21:50:42.922Z,11.97
2023-05-22T21:53:11.082Z,11.00
2023-05-22T21:55:39.316Z,11.97
2023-05-22T21:58:07.528Z,10.87
2023-05-22T22:00:35.710Z,11.47
2023-05-22T22:03:04.020Z,11.33
2023-05-22T22:05:33.878Z,10.63
2023-05-22T22:08:02.234Z,10.83
2023-05-22T22:10:30.463Z,10.00
2023-05-22T22:12:58.966Z,10.60
2023-05-22T22:15:27.195Z,10.20
2023-05-22T22:17:59.589Z,10.77
2023-05-22T22:20:39.865Z,11.57
2023-05-22T22:23:14.984Z,11.37
2023-05-22T22:25:43.550Z,11.13
2023-05-22T22:28:11.960Z,11.70
2023-05-22T22:30:40.518Z,11.60
2023-05-22T22:33:08.985Z,11.90
2023-05-22T22:35:37.550Z,11.23
2023-05-22T22:38:06.002Z,10.70
2023-05-22T22:40:35.878Z,10.47
2023-05-22T22:43:04.108Z,11.87
2023-05-22T22:45:32.500Z,10.70
2023-05-22T22:48:01.854Z,11.37
2023-05-22T22:50:30.053Z,11.53
2023-05-22T22:52:58.262Z,10.87
2023-05-22T22:55:26.889Z,11.27
2023-05-22T22:57:56.579Z,10.50
2023-05-22T23:00:24.942Z,10.70
2023-05-22T23:02:53.295Z,11.73
2023-05-22T23:05:21.649Z,10.30
2023-05-22T23:07:50.537Z,11.70
2023-05-22T23:10:19.034Z,11.37
2023-05-22T23:12:50.708Z,11.90
2023-05-22T23:15:20.571Z,10.80
2023-05-22T23:17:51.724Z,10.73
2023-05-22T23:20:20.208Z,10.60
2023-05-22T23:22:48.475Z,10.80
2023-05-22T23:25:16.665Z,10.30
2023-05-22T23:27:44.959Z,10.50
2023-05-22T23:30:14.015Z,10.97
2023-05-22T23:32:43.594Z,12.77
2023-05-22T23:35:12.254Z,10.77
2023-05-22T23:37:40.572Z,10.77
2023-05-22T23:40:10.113Z,11.10
2023-05-22T23:42:38.353Z,10.90
2023-05-22T23:45:07.538Z,11.90
2023-05-22T23:47:35.891Z,11.00
2023-05-22T23:50:06.097Z,12.73
2023-05-22T23:52:34.334Z,10.97
2023-05-22T23:55:02.727Z,11.90
2023-05-22T23:57:31.050Z,11.33
2023-05-22T23:59:59.266Z,11.23
